Time;durP1;ratioP1;P1;durP2;ratioP2;P2;SDS_P1;SDS_P2;PMS_P1;PMS_P2;Temp;Humidity;BMP_temperature;BMP_pressure;BME280_temperature;BME280_humidity;BME280_pressure;Samples;Min_cycle;Max_cycle;Signal;HPM_P1;HPM_P2
2023/01/31 00:01:57;;;;;;;13.77;2.73;;;;;;;1.75;100.00;100356.13;5078958;28;20738;-71
2023/01/31 00:04:22;;;;;;;16.92;2.35;;;;;;;1.68;100.00;100339.94;5079552;28;20434;-71
2023/01/31 00:06:50;;;;;;;9.07;2.07;;;;;;;1.64;100.00;100349.03;5079253;28;20045;-72
2023/01/31 00:09:15;;;;;;;13.23;1.80;;;;;;;1.71;100.00;100391.50;5080072;28;20439;-72
2023/01/31 00:11:41;;;;;;;16.33;4.20;;;;;;;1.68;100.00;100396.03;5078236;28;20024;-72
2023/01/31 00:14:09;;;;;;;20.25;3.17;;;;;;;1.74;100.00;100417.63;5079010;28;20030;-72
2023/01/31 00:16:35;;;;;;;23.70;2.88;;;;;;;1.67;100.00;100418.06;5076589;28;20127;-71
2023/01/31 00:19:00;;;;;;;24.10;3.50;;;;;;;1.55;100.00;100403.19;5067142;28;20135;-71
2023/01/31 00:21:28;;;;;;;12.88;4.00;;;;;;;1.57;100.00;100443.38;5077169;28;20042;-72
2023/01/31 00:23:54;;;;;;;26.38;2.97;;;;;;;1.45;100.00;100439.00;5078712;28;20081;-72
2023/01/31 00:26:31;;;;;;;9.98;3.20;;;;;;;1.53;100.00;100477.91;5078022;28;20023;-72
2023/01/31 00:28:58;;;;;;;12.48;3.08;;;;;;;1.58;100.00;100496.84;5074264;28;20028;-70
2023/01/31 00:31:26;;;;;;;16.70;3.50;;;;;;;1.51;100.00;100492.97;5076885;28;20032;-72
2023/01/31 00:33:53;;;;;;;9.68;2.00;;;;;;;1.61;100.00;100494.81;5078386;28;20513;-71
2023/01/31 00:36:22;;;;;;;16.63;2.55;;;;;;;1.53;100.00;100460.34;5077634;28;20028;-70
2023/01/31 00:38:49;;;;;;;20.25;3.58;;;;;;;1.41;100.00;100458.59;5077639;28;20024;-72
2023/01/31 00:41:20;;;;;;;16.30;3.60;;;;;;;1.50;100.00;100484.25;5080472;28;20031;-72
2023/01/31 00:43:45;;;;;;;15.15;3.75;;;;;;;1.51;100.00;100470.13;5077117;28;20056;-73
2023/01/31 00:46:11;;;;;;;11.35;2.80;;;;;;;1.44;100.00;100459.19;5061789;28;20121;-72
2023/01/31 00:48:36;;;;;;;9.27;2.10;;;;;;;1.39;100.00;100476.28;5059226;28;20192;-71
2023/01/31 00:51:02;;;;;;;19.20;2.75;;;;;;;1.46;100.00;100495.94;5066689;28;20124;-70
2023/01/31 00:53:27;;;;;;;19.92;3.28;;;;;;;1.48;100.00;100504.56;5076741;28;20119;-72
2023/01/31 00:56:00;;;;;;;14.23;2.15;;;;;;;1.42;100.00;100510.25;5077733;28;20503;-72
2023/01/31 00:58:26;;;;;;;14.32;2.95;;;;;;;1.44;100.00;100532.03;5059794;28;20040;-71
2023/01/31 01:00:53;;;;;;;21.73;2.67;;;;;;;1.38;100.00;100511.41;5079073;28;20062;-72
2023/01/31 01:03:19;;;;;;;26.02;2.83;;;;;;;1.35;100.00;100527.41;5078899;28;20024;-72
2023/01/31 01:05:44;;;;;;;13.17;2.17;;;;;;;1.36;100.00;100539.63;5076806;28;20497;-72
2023/01/31 01:08:09;;;;;;;27.85;3.78;;;;;;;1.34;100.00;100552.91;5079608;28;20024;-72
2023/01/31 01:10:35;;;;;;;18.35;3.55;;;;;;;1.34;100.00;100559.94;5077328;28;20424;-72
2023/01/31 01:13:01;;;;;;;20.20;3.20;;;;;;;1.33;100.00;100579.28;5079578;28;20146;-72
2023/01/31 01:15:27;;;;;;;21.63;4.10;;;;;;;1.29;100.00;100598.84;5076155;28;20047;-72
2023/01/31 01:17:54;;;;;;;30.23;3.80;;;;;;;1.31;100.00;100616.25;5077834;28;20016;-72
2023/01/31 01:20:19;;;;;;;32.72;3.53;;;;;;;1.37;100.00;100628.13;5060896;28;20545;-71
2023/01/31 01:22:45;;;;;;;12.07;2.40;;;;;;;1.37;100.00;100621.06;5079350;28;20128;-72
2023/01/31 01:25:10;;;;;;;12.77;2.40;;;;;;;1.41;100.00;100642.75;5078049;28;20035;-72
2023/01/31 01:27:36;;;;;;;14.05;3.17;;;;;;;1.32;100.00;100633.69;5075578;28;20382;-73
2023/01/31 01:30:02;;;;;;;14.18;2.78;;;;;;;1.43;100.00;100654.00;5078269;28;20112;-72
2023/01/31 01:32:27;;;;;;;;;;;;;;;1.44;100.00;100653.06;5076601;28;20036;-72
2023/01/31 01:34:53;;;;;;;13.02;2.45;;;;;;;1.39;100.00;100639.38;5077501;28;20280;-71
2023/01/31 01:37:21;;;;;;;26.17;4.55;;;;;;;1.35;100.00;100640.53;5077456;28;20032;-72
2023/01/31 01:39:48;;;;;;;18.25;3.55;;;;;;;1.44;100.00;100671.47;5076898;28;20040;-70
2023/01/31 01:42:24;;;;;;;24.70;3.28;;;;;;;1.40;100.00;100672.63;5077784;28;20020;-72
2023/01/31 01:44:56;;;;;;;14.02;3.22;;;;;;;1.43;100.00;100683.78;5080071;28;20032;-70
2023/01/31 01:47:43;;;;;;;36.95;5.88;;;;;;;1.40;100.00;100672.63;5083555;28;21021;-71
2023/01/31 01:50:15;;;;;;;19.92;4.88;;;;;;;1.37;100.00;100662.31;5085747;28;20054;-72
2023/01/31 01:52:55;;;;;;;19.77;3.35;;;;;;;1.39;100.00;100684.94;5079777;28;20033;-71
2023/01/31 01:55:27;;;;;;;24.20;3.50;;;;;;;1.39;100.00;100689.38;5083039;28;20115;-72
2023/01/31 01:57:59;;;;;;;22.65;4.32;;;;;;;1.45;100.00;100694.19;5082690;28;20031;-71
2023/01/31 02:00:28;;;;;;;24.20;4.60;;;;;;;1.50;100.00;100704.41;5080981;28;20035;-73
2023/01/31 02:02:57;;;;;;;16.92;3.60;;;;;;;1.62;100.00;100720.22;5082660;28;20016;-72
2023/01/31 02:05:31;;;;;;;20.85;2.35;;;;;;;1.74;100.00;100722.94;5081561;28;20042;-72
2023/01/31 02:07:59;;;;;;;10.85;3.38;;;;;;;1.64;100.00;100692.00;5083738;28;20032;-72
2023/01/31 02:10:45;;;;;;;14.15;1.77;;;;;;;1.51;100.00;100679.78;5079690;28;20028;-73
2023/01/31 02:13:11;;;;;;;15.13;3.10;;;;;;;1.51;100.00;100700.84;5063939;28;20122;-73
2023/01/31 02:15:37;;;;;;;;;;;;;;;1.55;100.00;100713.69;5081706;28;20079;-71
2023/01/31 02:18:03;;;;;;;18.20;3.42;;;;;;;1.52;100.00;100694.63;5086429;28;20332;-72
2023/01/31 02:20:49;;;;;;;19.73;3.00;;;;;;;1.35;100.00;100677.38;5081068;28;20392;-72
2023/01/31 02:23:43;;;;;;;17.90;2.70;;;;;;;1.40;100.00;100714.72;5082962;28;20552;-72
2023/01/31 02:26:21;;;;;;;17.20;3.90;;;;;;;1.54;100.00;100733.03;5084883;28;20110;-72
2023/01/31 02:29:12;;;;;;;14.65;2.42;;;;;;;1.59;100.00;100703.78;5079887;28;20131;-72
2023/01/31 02:32:16;;;;;;;17.55;3.95;;;;;;;1.57;100.00;100672.31;5083186;28;20060;-73
2023/01/31 02:34:56;;;;;;;25.23;5.32;;;;;;;1.47;100.00;100650.19;5083234;28;20054;-70
2023/01/31 02:37:31;;;;;;;19.50;2.83;;;;;;;1.41;100.00;100654.13;5067091;28;20244;-70
2023/01/31 02:40:16;;;;;;;11.30;2.20;;;;;;;1.37;100.00;100659.69;5080677;28;20031;-72
2023/01/31 02:42:53;;;;;;;18.58;2.65;;;;;;;1.37;100.00;100664.94;5061815;28;20321;-71
2023/01/31 02:45:31;;;;;;;24.00;2.83;;;;;;;1.39;100.00;100678.84;5082152;28;20569;-72
2023/01/31 02:48:20;;;;;;;15.00;3.00;;;;;;;1.45;100.00;100675.78;5083434;28;20023;-72
2023/01/31 02:51:06;;;;;;;14.80;2.65;;;;;;;1.38;100.00;100677.13;5079758;28;20063;-71
2023/01/31 02:53:36;;;;;;;22.17;3.58;;;;;;;1.38;100.00;100692.94;5079940;28;20386;-70
2023/01/31 02:56:18;;;;;;;12.90;2.30;;;;;;;1.47;100.00;100722.09;5080580;28;20503;-70
2023/01/31 02:59:06;;;;;;;12.82;2.40;;;;;;;1.46;100.00;100727.47;5079309;28;20078;-72
2023/01/31 03:01:36;;;;;;;15.40;2.40;;;;;;;1.44;100.00;100737.25;5073045;28;20558;-71
2023/01/31 03:04:07;;;;;;;12.77;3.08;;;;;;;1.39;100.00;100749.88;5080641;28;20130;-72
2023/01/31 03:06:35;;;;;;;24.58;4.05;;;;;;;1.44;100.00;100766.19;5077772;28;20040;-72
2023/01/31 03:09:05;;;;;;;16.80;3.75;;;;;;;1.42;100.00;100770.72;5080431;28;20027;-71
2023/01/31 03:11:54;;;;;;;21.10;3.10;;;;;;;1.39;100.00;100771.75;5080189;28;20028;-71
2023/01/31 03:14:33;;;;;;;18.88;2.63;;;;;;;1.32;100.00;100785.44;5064918;28;20038;-73
2023/01/31 03:17:33;;;;;;;15.70;3.08;;;;;;;1.39;100.00;100805.13;5065311;28;20139;-72
2023/01/31 03:20:21;;;;;;;12.32;2.88;;;;;;;1.50;100.00;100828.06;5074965;28;20116;-72
2023/01/31 03:22:57;;;;;;;20.92;5.10;;;;;;;1.55;100.00;100833.91;5081865;28;20047;-72
2023/01/31 03:25:29;;;;;;;17.08;2.50;;;;;;;1.52;100.00;100823.56;5079043;28;20028;-71
2023/01/31 03:28:00;;;;;;;19.30;4.95;;;;;;;1.57;100.00;100821.44;5082625;28;20082;-72
2023/01/31 03:30:37;;;;;;;26.98;4.35;;;;;;;1.58;100.00;100825.78;5077085;28;20202;-73
2023/01/31 03:33:15;;;;;;;23.70;4.47;;;;;;;1.59;100.00;100830.09;5079898;28;20526;-72
2023/01/31 03:35:51;;;;;;;24.95;5.55;;;;;;;1.68;100.00;100818.94;5077906;28;20028;-71
2023/01/31 03:38:22;;;;;;;19.00;4.00;;;;;;;1.73;100.00;100843.16;5079141;28;20039;-72
2023/01/31 03:41:04;;;;;;;16.80;3.15;;;;;;;1.82;100.00;100842.53;5064735;28;20529;-72
2023/01/31 03:43:57;;;;;;;22.20;3.10;;;;;;;1.82;100.00;100836.44;5080749;28;20056;-72
2023/01/31 03:46:31;;;;;;;24.15;3.40;;;;;;;1.86;100.00;100835.28;5075174;28;20451;-71
2023/01/31 03:49:02;;;;;;;17.10;2.67;;;;;;;1.83;100.00;100830.25;5064927;28;20443;-71
2023/01/31 03:51:32;;;;;;;21.77;3.92;;;;;;;1.82;100.00;100831.19;5077530;28;20032;-71
2023/01/31 03:54:04;;;;;;;19.95;3.28;;;;;;;1.81;100.00;100824.25;5076743;28;20036;-71
2023/01/31 03:56:46;;;;;;;11.45;3.00;;;;;;;1.83;100.00;100835.50;5078329;28;20027;-71
2023/01/31 03:59:16;;;;;;;24.83;3.55;;;;;;;1.78;100.00;100816.53;5079964;28;20115;-73
2023/01/31 04:01:47;;;;;;;17.73;2.72;;;;;;;1.86;100.00;100830.03;5060299;28;20040;-71
2023/01/31 04:04:36;;;;;;;21.00;2.88;;;;;;;1.77;100.00;100828.03;5081751;28;20031;-71
2023/01/31 04:07:02;;;;;;;18.63;3.58;;;;;;;1.80;100.00;100833.06;5076189;28;20032;-72
2023/01/31 04:09:29;;;;;;;19.42;2.75;;;;;;;1.78;100.00;100840.22;5077040;28;20126;-71
2023/01/31 04:11:59;;;;;;;16.90;3.10;;;;;;;1.79;100.00;100836.66;5080165;28;20115;-71
2023/01/31 04:14:24;;;;;;;18.02;3.38;;;;;;;1.67;100.00;100823.38;5077793;28;20408;-71
2023/01/31 04:16:50;;;;;;;20.45;3.58;;;;;;;1.57;100.00;100819.69;5079101;28;20104;-71
2023/01/31 04:19:15;;;;;;;20.20;2.90;;;;;;;1.53;100.00;100836.63;5078871;28;20039;-71
2023/01/31 04:21:40;;;;;;;15.83;4.37;;;;;;;1.46;100.00;100845.88;5079138;28;20548;-71
2023/01/31 04:24:08;;;;;;;14.60;2.97;;;;;;;1.54;100.00;100859.34;5080509;28;20451;-71
2023/01/31 04:26:33;;;;;;;20.85;2.67;;;;;;;1.47;100.00;100855.44;5077658;28;20322;-72
2023/01/31 04:28:59;;;;;;;21.05;2.95;;;;;;;1.40;100.00;100856.78;5078928;28;20066;-71
2023/01/31 04:31:24;;;;;;;26.27;4.80;;;;;;;1.38;100.00;100879.72;5078484;28;20071;-72
2023/01/31 04:33:49;;;;;;;17.52;3.33;;;;;;;1.43;100.00;100888.16;5079387;28;20028;-71
2023/01/31 04:36:15;;;;;;;14.38;3.20;;;;;;;1.43;100.00;100891.63;5079803;28;20508;-71
2023/01/31 04:38:40;;;;;;;21.50;4.27;;;;;;;1.51;100.00;100895.56;5077870;28;20067;-72
2023/01/31 04:41:05;;;;;;;19.57;3.83;;;;;;;1.58;100.00;100908.19;5082341;28;20523;-71
2023/01/31 04:43:31;;;;;;;30.52;5.15;;;;;;;1.69;100.00;100918.03;5077749;28;20096;-73
2023/01/31 04:45:56;;;;;;;13.23;3.30;;;;;;;1.72;100.00;100912.56;5079875;28;20138;-73
2023/01/31 04:48:21;;;;;;;16.73;4.03;;;;;;;1.77;100.00;100913.09;5077395;28;20289;-73
2023/01/31 04:50:47;;;;;;;22.88;4.05;;;;;;;1.75;100.00;100914.97;5078451;28;20509;-72
2023/01/31 04:53:12;;;;;;;16.83;3.50;;;;;;;1.80;100.00;100906.78;5083301;28;20058;-71
2023/01/31 04:55:37;;;;;;;35.23;6.33;;;;;;;1.72;100.00;100888.03;5076229;28;20285;-71
2023/01/31 04:58:03;;;;;;;21.50;3.97;;;;;;;1.74;100.00;100889.63;5078659;28;20012;-72
2023/01/31 05:00:28;;;;;;;14.75;3.63;;;;;;;1.78;100.00;100892.88;5078274;28;20707;-72
2023/01/31 05:02:54;;;;;;;21.90;2.27;;;;;;;1.75;100.00;100887.81;5080767;28;20058;-70
2023/01/31 05:05:19;;;;;;;17.23;3.45;;;;;;;1.77;100.00;100889.41;5078939;28;20293;-73
2023/01/31 05:07:45;;;;;;;14.35;2.72;;;;;;;1.81;100.00;100890.91;5079510;28;20044;-71
2023/01/31 05:10:11;;;;;;;22.38;4.68;;;;;;;1.80;100.00;100880.44;5078558;28;20085;-71
2023/01/31 05:12:36;;;;;;;18.80;4.18;;;;;;;1.90;100.00;100889.44;5078243;28;20024;-72
2023/01/31 05:15:03;;;;;;;12.47;3.23;;;;;;;1.88;100.00;100878.16;5079740;28;20036;-72
2023/01/31 05:17:29;;;;;;;17.63;4.70;;;;;;;1.89;100.00;100882.47;5080469;28;20035;-72
2023/01/31 05:19:58;;;;;;;20.92;3.00;;;;;;;1.92;100.00;100890.19;5083615;28;20130;-71
2023/01/31 05:22:25;;;;;;;14.85;3.30;;;;;;;1.97;100.00;100892.50;5080888;28;20035;-71
2023/01/31 05:24:50;;;;;;;19.52;4.93;;;;;;;1.95;100.00;100889.13;5082657;28;20478;-73
2023/01/31 05:27:16;;;;;;;28.52;3.92;;;;;;;1.93;100.00;100894.50;5086677;28;20036;-71
2023/01/31 05:29:42;;;;;;;;;;;;;;;1.93;100.00;100896.28;5063583;28;20127;-71
2023/01/31 05:32:07;;;;;;;25.38;4.45;;;;;;;1.93;100.00;100893.66;5083591;28;20374;-71
2023/01/31 05:34:33;;;;;;;23.85;2.75;;;;;;;1.92;100.00;100897.22;5079876;28;20024;-71
2023/01/31 05:36:59;;;;;;;29.45;2.88;;;;;;;1.89;100.00;100901.75;5083624;28;20154;-70
2023/01/31 05:39:24;;;;;;;23.50;3.80;;;;;;;1.90;100.00;100897.34;5082150;28;20040;-72
2023/01/31 05:41:51;;;;;;;20.17;4.87;;;;;;;1.95;100.00;100897.03;5082737;28;21158;-72
2023/01/31 05:44:17;;;;;;;20.27;2.97;;;;;;;1.96;100.00;100917.97;5079779;28;20039;-72
2023/01/31 05:46:42;;;;;;;22.58;6.57;;;;;;;1.97;100.00;100914.41;5079919;28;20025;-72
2023/01/31 05:49:08;;;;;;;25.58;4.60;;;;;;;1.98;100.00;100913.44;5065040;28;20058;-71
2023/01/31 05:51:33;;;;;;;16.27;2.30;;;;;;;2.04;100.00;100910.41;5079301;28;20089;-70
2023/01/31 05:53:58;;;;;;;11.87;2.50;;;;;;;2.02;100.00;100904.41;5083207;28;20088;-70
2023/01/31 05:56:24;;;;;;;24.75;3.60;;;;;;;2.02;100.00;100901.78;5084311;28;20426;-72
2023/01/31 05:58:50;;;;;;;18.27;2.88;;;;;;;2.06;100.00;100907.66;5080706;28;20422;-71
2023/01/31 06:01:20;;;;;;;18.50;2.75;;;;;;;2.10;100.00;100909.16;5082270;28;20055;-72
2023/01/31 06:03:46;;;;;;;13.95;3.08;;;;;;;2.09;100.00;100904.84;5080357;28;20409;-71
2023/01/31 06:06:12;;;;;;;21.17;2.28;;;;;;;2.09;100.00;100903.03;5081553;28;20031;-72
2023/01/31 06:08:38;;;;;;;29.08;5.70;;;;;;;2.08;100.00;100898.75;5080341;28;20029;-71
2023/01/31 06:11:04;;;;;;;11.13;3.08;;;;;;;2.09;100.00;100884.59;5082638;28;20020;-71
2023/01/31 06:13:30;;;;;;;28.85;5.63;;;;;;;2.07;100.00;100883.88;5081298;28;20082;-71
2023/01/31 06:15:56;;;;;;;;;;;;;;;2.13;100.00;100887.03;5081286;28;20628;-72
2023/01/31 06:18:22;;;;;;;15.68;3.38;;;;;;;2.11;100.00;100884.50;5081765;28;19942;-73
2023/01/31 06:20:47;;;;;;;20.90;3.97;;;;;;;2.10;100.00;100875.75;5081096;28;20045;-71
2023/01/31 06:23:12;;;;;;;18.70;3.17;;;;;;;2.15;100.00;100869.31;5082694;28;20031;-72
2023/01/31 06:25:38;;;;;;;23.20;2.57;;;;;;;2.17;100.00;100867.44;5066482;28;20294;-71
2023/01/31 06:28:04;;;;;;;18.03;2.93;;;;;;;2.21;100.00;100864.47;5081140;28;20039;-72
2023/01/31 06:30:30;;;;;;;19.30;3.22;;;;;;;2.23;100.00;100857.31;5079370;28;20042;-71
2023/01/31 06:32:58;;;;;;;24.15;5.30;;;;;;;2.33;100.00;100852.25;5085040;28;20119;-72
2023/01/31 06:35:23;;;;;;;29.23;4.20;;;;;;;2.36;100.00;100830.94;5062300;28;20024;-71
2023/01/31 06:37:49;;;;;;;14.53;3.50;;;;;;;2.42;100.00;100813.88;5081295;28;20036;-71
2023/01/31 06:40:14;;;;;;;34.17;5.80;;;;;;;2.45;100.00;100822.41;5080129;28;20286;-71
2023/01/31 06:42:39;;;;;;;18.45;4.47;;;;;;;2.45;100.00;100829.47;5042413;23;20153;-83
2023/01/31 06:45:05;;;;;;;26.60;3.65;;;;;;;2.46;100.00;100834.66;4994356;28;20046;-84
2023/01/31 06:47:31;;;;;;;28.90;4.22;;;;;;;2.56;100.00;100831.34;4996409;28;20136;-81
2023/01/31 06:49:56;;;;;;;22.33;3.67;;;;;;;2.51;100.00;100827.25;4991512;28;20088;-83
2023/01/31 06:52:21;;;;;;;26.77;5.23;;;;;;;2.54;100.00;100845.47;4996807;28;20053;-81
2023/01/31 06:54:47;;;;;;;22.73;4.53;;;;;;;2.52;100.00;100847.38;4989249;28;20344;-83
2023/01/31 06:57:12;;;;;;;17.07;4.33;;;;;;;2.62;100.00;100846.72;4976422;28;20137;-82
2023/01/31 06:59:37;;;;;;;20.50;5.23;;;;;;;2.63;100.00;100853.69;4992515;28;20575;-84
2023/01/31 07:02:03;;;;;;;26.60;4.83;;;;;;;2.62;100.00;100852.00;5004503;28;20817;-85
2023/01/31 07:04:28;;;;;;;30.20;6.37;;;;;;;2.68;100.00;100857.69;4983342;28;20050;-85
2023/01/31 07:06:53;;;;;;;28.60;5.40;;;;;;;2.78;100.00;100862.28;4975899;28;20100;-85
2023/01/31 07:09:19;;;;;;;23.45;5.72;;;;;;;2.73;100.00;100855.56;4998655;28;20038;-84
2023/01/31 07:11:44;;;;;;;29.53;8.50;;;;;;;2.77;100.00;100852.72;4984902;28;20037;-85
2023/01/31 07:14:09;;;;;;;31.07;5.57;;;;;;;2.84;100.00;100846.06;5011311;28;20285;-85
2023/01/31 07:16:37;;;;;;;31.03;6.77;;;;;;;2.78;100.00;100835.94;4980595;28;20085;-82
2023/01/31 07:19:02;;;;;;;40.10;6.43;;;;;;;2.95;100.00;100862.78;4992209;28;20073;-83
2023/01/31 07:21:28;;;;;;;38.15;8.35;;;;;;;2.93;100.00;100840.13;5009638;28;20057;-85
2023/01/31 07:23:54;;;;;;;40.67;8.23;;;;;;;2.94;100.00;100837.34;4996056;28;20029;-86
2023/01/31 07:26:19;;;;;;;38.83;8.13;;;;;;;2.95;100.00;100833.78;4996479;28;20041;-85
2023/01/31 07:28:44;;;;;;;22.20;4.37;;;;;;;3.00;100.00;100824.66;4987043;28;20046;-85
2023/01/31 07:31:12;;;;;;;25.53;5.70;;;;;;;2.98;100.00;100816.88;4991121;28;20117;-85
2023/01/31 07:33:38;;;;;;;31.65;6.25;;;;;;;2.96;100.00;100809.06;4992066;28;20046;-83
2023/01/31 07:36:06;;;;;;;40.88;8.18;;;;;;;3.05;100.00;100802.28;4997914;28;20494;-86
2023/01/31 07:38:32;;;;;;;34.53;6.97;;;;;;;3.08;100.00;100790.66;4981501;28;20062;-82
2023/01/31 07:41:02;;;;;;;29.58;5.00;;;;;;;3.09;100.00;100787.06;4976026;28;20144;-85
2023/01/31 07:43:28;;;;;;;24.20;5.03;;;;;;;3.07;100.00;100781.09;4991674;28;20541;-85
2023/01/31 07:45:53;;;;;;;24.60;5.30;;;;;;;3.09;100.00;100765.97;4993429;28;20109;-85
2023/01/31 07:48:22;;;;;;;29.60;4.95;;;;;;;3.11;100.00;100766.69;4995440;28;20104;-85
2023/01/31 07:50:57;;;;;;;28.98;5.25;;;;;;;3.08;100.00;100756.38;4999223;28;20030;-84
2023/01/31 07:53:23;;;;;;;23.45;4.63;;;;;;;3.07;100.00;100746.78;4988998;28;20034;-85
2023/01/31 07:55:48;;;;;;;29.15;5.38;;;;;;;3.12;100.00;100744.66;5025840;28;20037;-85
2023/01/31 07:58:15;;;;;;;30.10;5.07;;;;;;;3.14;100.00;100748.00;4988253;28;20033;-85
2023/01/31 08:03:31;;;;;;;31.73;6.00;;;;;;;3.14;100.00;100735.66;5010014;28;20034;-85
2023/01/31 08:05:57;;;;;;;23.17;4.30;;;;;;;3.13;100.00;100719.94;4998322;28;20112;-82
2023/01/31 08:08:22;;;;;;;45.15;6.18;;;;;;;3.18;100.00;100717.78;5001770;28;20034;-85
2023/01/31 08:10:48;;;;;;;33.40;4.75;;;;;;;3.15;100.00;100713.59;4989340;28;20038;-84
2023/01/31 08:13:13;;;;;;;25.57;4.77;;;;;;;3.19;100.00;100708.94;4994545;28;20033;-85
2023/01/31 08:15:38;;;;;;;26.00;4.03;;;;;;;3.23;100.00;100698.97;4975780;28;20380;-84
2023/01/31 08:18:04;;;;;;;33.40;5.20;;;;;;;3.17;100.00;100684.47;4981943;28;20077;-86
2023/01/31 08:20:29;;;;;;;25.53;6.27;;;;;;;3.21;100.00;100693.81;4989152;28;20054;-85
2023/01/31 08:22:57;;;;;;;27.83;6.05;;;;;;;3.25;100.00;100686.50;4992229;28;20062;-85
2023/01/31 08:25:22;;;;;;;33.38;6.80;;;;;;;3.26;100.00;100680.28;4982645;28;20027;-83
2023/01/31 08:27:48;;;;;;;21.37;4.90;;;;;;;3.15;100.00;100666.09;5005057;28;20108;-85
2023/01/31 08:30:13;;;;;;;18.90;4.82;;;;;;;3.27;100.00;100655.56;4974225;28;20034;-85
2023/01/31 08:32:39;;;;;;;29.90;7.28;;;;;;;3.21;100.00;100659.53;5005263;28;20042;-85
2023/01/31 08:35:04;;;;;;;21.67;5.83;;;;;;;3.21;100.00;100658.66;5001567;28;20149;-87
2023/01/31 08:37:31;;;;;;;32.28;6.05;;;;;;;3.17;100.00;100663.34;4990789;28;20041;-86
2023/01/31 08:39:57;;;;;;;29.92;6.30;;;;;;;3.16;100.00;100686.25;4998400;28;20076;-84
2023/01/31 08:42:22;;;;;;;33.78;6.85;;;;;;;3.15;100.00;100681.09;5003286;28;20065;-85
2023/01/31 08:44:47;;;;;;;37.43;7.53;;;;;;;3.17;100.00;100693.22;4981413;28;20153;-86
2023/01/31 08:47:13;;;;;;;39.77;7.67;;;;;;;3.19;100.00;100687.81;4988969;28;20285;-86
2023/01/31 08:49:39;;;;;;;27.50;7.00;;;;;;;3.15;100.00;100681.91;4980255;28;20058;-85
2023/01/31 08:52:11;;;;;;;24.10;5.45;;;;;;;3.23;100.00;100689.28;4976674;28;20070;-86
2023/01/31 08:54:37;;;;;;;22.30;6.28;;;;;;;3.20;100.00;100684.22;4986485;28;20603;-85
2023/01/31 08:57:02;;;;;;;28.05;6.97;;;;;;;3.22;100.00;100674.38;5017457;28;20049;-85
2023/01/31 08:59:28;;;;;;;29.27;6.70;;;;;;;3.24;100.00;100672.47;4998653;28;20033;-84
2023/01/31 09:01:53;;;;;;;26.63;6.40;;;;;;;3.25;100.00;100663.59;4999657;28;20081;-84
2023/01/31 09:04:20;;;;;;;30.45;6.22;;;;;;;3.31;100.00;100663.13;5001062;28;20077;-85
2023/01/31 09:06:45;;;;;;;19.50;6.20;;;;;;;3.28;100.00;100654.63;4989278;28;20905;-86
2023/01/31 09:09:10;;;;;;;19.70;5.43;;;;;;;3.31;100.00;100649.94;4997058;28;20753;-85
2023/01/31 09:11:36;;;;;;;26.80;6.80;;;;;;;3.40;100.00;100639.66;4983657;28;20289;-83
2023/01/31 09:14:01;;;;;;;32.27;6.77;;;;;;;3.33;100.00;100620.81;4987602;28;20285;-84
2023/01/31 09:16:27;;;;;;;19.33;6.60;;;;;;;3.34;100.00;100631.22;4994041;28;20352;-85
2023/01/31 09:18:52;;;;;;;32.37;6.00;;;;;;;3.38;100.00;100634.47;4985569;28;20026;-85
2023/01/31 09:21:20;;;;;;;27.13;6.15;;;;;;;3.37;100.00;100625.72;4978231;28;20057;-82
2023/01/31 09:23:47;;;;;;;20.00;6.18;;;;;;;3.28;100.00;100613.25;4993057;28;20099;-86
2023/01/31 09:26:14;;;;;;;21.20;5.40;;;;;;;3.42;100.00;100624.50;5002000;28;20026;-84
2023/01/31 09:28:42;;;;;;;26.08;6.00;;;;;;;3.43;100.00;100620.94;5011842;28;20034;-83
2023/01/31 09:31:14;;;;;;;23.45;6.20;;;;;;;3.39;100.00;100609.75;5029948;23;20584;-77
2023/01/31 09:33:39;;;;;;;16.48;6.05;;;;;;;3.35;100.00;100603.88;5008549;28;20065;-76
2023/01/31 09:36:14;;;;;;;18.40;7.03;;;;;;;3.36;100.00;100597.63;5025411;28;20072;-76
2023/01/31 09:38:40;;;;;;;20.73;5.93;;;;;;;3.44;100.00;100606.75;5018543;28;20029;-77
2023/01/31 09:41:13;;;;;;;19.05;5.75;;;;;;;3.40;100.00;100611.44;5022339;28;20655;-77
2023/01/31 09:43:42;;;;;;;15.57;5.15;;;;;;;3.41;100.00;100596.44;5016138;28;20125;-77
2023/01/31 09:46:15;;;;;;;22.40;5.82;;;;;;;3.40;100.00;100595.63;5001160;28;20030;-77
2023/01/31 09:48:45;;;;;;;17.35;5.80;;;;;;;3.37;100.00;100585.28;5016020;28;20022;-77
2023/01/31 09:51:12;;;;;;;23.52;6.28;;;;;;;3.42;100.00;100596.34;4995099;28;20030;-77
2023/01/31 09:53:40;;;;;;;25.10;6.95;;;;;;;3.45;100.00;100593.44;4997000;28;20053;-77
2023/01/31 09:56:08;;;;;;;24.23;5.75;;;;;;;3.48;100.00;100582.63;4997947;28;20026;-77
2023/01/31 09:59:17;;;;;;;20.42;5.78;;;;;;;3.52;100.00;100578.81;5004608;28;20045;-77
2023/01/31 10:01:54;;;;;;;15.95;6.80;;;;;;;3.57;100.00;100578.44;4988712;28;20057;-78
2023/01/31 10:04:45;;;;;;;23.67;6.78;;;;;;;3.55;100.00;100562.72;5005475;28;20400;-77
2023/01/31 10:07:29;;;;;;;21.23;7.45;;;;;;;3.58;100.00;100545.78;5007690;28;20124;-78
2023/01/31 10:10:12;;;;;;;18.33;6.10;;;;;;;3.60;100.00;100546.50;5008980;28;20038;-78
2023/01/31 10:12:56;;;;;;;17.52;5.32;;;;;;;3.64;100.00;100540.03;5009386;28;20036;-77
2023/01/31 10:15:31;;;;;;;22.35;6.90;;;;;;;3.64;100.00;100536.56;4993694;28;20030;-78
2023/01/31 10:18:07;;;;;;;11.38;4.32;;;;;;;3.63;100.00;100535.72;5008422;28;20033;-77
2023/01/31 10:20:37;;;;;;;16.73;6.78;;;;;;;3.66;100.00;100522.28;5018324;28;20049;-78
2023/01/31 10:23:14;;;;;;;15.75;5.35;;;;;;;3.64;100.00;100508.34;5007587;28;20048;-77
2023/01/31 10:25:58;;;;;;;15.73;5.07;;;;;;;3.66;100.00;100514.34;5010088;28;20038;-78
2023/01/31 10:28:36;;;;;;;21.08;4.80;;;;;;;3.72;100.00;100505.94;4992863;28;20100;-77
2023/01/31 10:31:24;;;;;;;21.67;5.28;;;;;;;3.77;100.00;100509.03;5027800;28;20091;-75
2023/01/31 10:33:56;;;;;;;17.17;5.78;;;;;;;3.83;100.00;100496.31;5031522;28;20033;-75
2023/01/31 10:36:30;;;;;;;19.60;6.07;;;;;;;3.79;100.00;100488.63;5017686;28;20029;-74
2023/01/31 10:39:12;;;;;;;19.48;4.57;;;;;;;3.86;100.00;100496.88;5032071;28;20651;-79
2023/01/31 10:41:59;;;;;;;18.48;5.35;;;;;;;3.90;100.00;100476.34;5031352;28;20037;-76
2023/01/31 10:44:38;;;;;;;17.95;5.38;;;;;;;3.83;100.00;100464.59;5010538;28;20529;-78
2023/01/31 10:47:11;;;;;;;15.65;4.53;;;;;;;3.87;100.00;100460.75;5005001;28;20037;-79
2023/01/31 10:49:36;;;;;;;13.35;4.75;;;;;;;3.89;100.00;100449.09;5025595;28;20075;-77
2023/01/31 10:52:15;;;;;;;14.00;4.87;;;;;;;3.93;100.00;100453.19;5021687;28;20093;-77
2023/01/31 10:54:53;;;;;;;15.50;4.47;;;;;;;3.92;100.00;100453.28;5031355;28;20037;-77
2023/01/31 10:57:19;;;;;;;11.93;4.10;;;;;;;3.97;100.00;100456.38;5013081;28;20045;-78
2023/01/31 10:59:48;;;;;;;11.57;4.63;;;;;;;4.04;100.00;100448.78;5031859;28;20021;-77
2023/01/31 11:02:19;;;;;;;12.90;3.92;;;;;;;4.04;100.00;100452.25;5015557;28;20029;-79
2023/01/31 11:04:44;;;;;;;13.43;4.28;;;;;;;3.97;100.00;100459.03;5029679;28;20046;-77
2023/01/31 11:07:10;;;;;;;15.80;4.23;;;;;;;3.97;100.00;100445.81;5010698;28;20033;-78
2023/01/31 11:09:40;;;;;;;13.05;4.30;;;;;;;4.00;100.00;100437.63;5026096;28;20829;-76
2023/01/31 11:12:07;;;;;;;14.13;4.50;;;;;;;4.03;100.00;100434.75;5031555;28;20136;-78
2023/01/31 11:14:35;;;;;;;14.75;4.70;;;;;;;4.05;100.00;100424.03;5014972;28;20057;-79
2023/01/31 11:17:03;;;;;;;15.30;4.75;;;;;;;4.07;100.00;100425.59;5027353;28;20032;-78
2023/01/31 11:19:36;;;;;;;10.40;4.47;;;;;;;4.08;100.00;100419.34;5011131;28;20053;-78
2023/01/31 11:22:03;;;;;;;19.98;5.00;;;;;;;4.13;100.00;100417.16;5011918;28;20038;-77
2023/01/31 11:24:32;;;;;;;16.00;4.50;;;;;;;4.16;100.00;100400.19;5024595;28;20030;-79
2023/01/31 11:27:02;;;;;;;8.27;4.35;;;;;;;4.25;100.00;100409.16;5028421;28;20040;-75
2023/01/31 11:29:49;;;;;;;13.40;5.32;;;;;;;4.17;100.00;100415.94;5012418;28;20034;-78
2023/01/31 11:32:22;;;;;;;12.40;4.57;;;;;;;4.26;100.00;100409.03;5029619;28;20478;-78
2023/01/31 11:35:13;;;;;;;17.88;4.32;;;;;;;4.20;100.00;100398.97;5029044;28;20051;-76